This is the latest recevied weather packets stored in our database for station/object K6CED. If no packets are shown the sender has not sent any weather packets the latest 10 day(s).
| Time | Temp. | Humidity | Pressure | Rain* | Wind** | Luminosity | Snow |
|---|---|---|---|---|---|---|---|
| 1788294910 | 32.22° C | 29% | 1017 hPa | 0 mm | - | 722 W/m² | - |
| 1788294630 | 31.67° C | 29% | 1017.1 hPa | 0 mm | - | 716 W/m² | - |
| 1788294299 | 31.11° C | 30% | 1017.2 hPa | 0 mm | - | 717 W/m² | - |
| 1788293995 | 31.11° C | 29% | 1017.4 hPa | 0 mm | - | 724 W/m² | - |
| 1788293690 | 31.11° C | 28% | 1017.5 hPa | 0 mm | - | 734 W/m² | - |
| 1788293384 | 31.11° C | 27% | 1017.3 hPa | 0 mm | - | 743 W/m² | - |
| 1788293079 | 31.11° C | 27% | 1017.4 hPa | 0 mm | - | 754 W/m² | - |
| 1788292778 | 30.56° C | 27% | 1017.7 hPa | 0 mm | - | 764 W/m² | - |
| 1788292476 | 31.11° C | 27% | 1017.5 hPa | 0 mm | - | 769 W/m² | - |
| 1788292166 | 30.56° C | 27% | 1017.7 hPa | 0 mm | - | 780 W/m² | - |
| 1788291861 | 30° C | 27% | 1017.6 hPa | 0 mm | - | 787 W/m² | - |
| 1788291557 | 30.56° C | 25% | 1017.7 hPa | 0 mm | - | 794 W/m² | - |
| 1788291255 | 30.56° C | 26% | 1017.7 hPa | 0 mm | - | 800 W/m² | - |
| 1788290950 | 30° C | 27% | 1018.1 hPa | 0 mm | - | 807 W/m² | - |
| 1788290646 | 30° C | 26% | 1018.2 hPa | 0 mm | - | 811 W/m² | - |
| 1788290342 | 30° C | 26% | 1017.9 hPa | 0 mm | - | 820 W/m² | - |
| 1788290037 | 30° C | 29% | 1017.9 hPa | 0 mm | - | 825 W/m² | - |
| 1788289733 | 30.56° C | 28% | 1018.1 hPa | 0 mm | - | 829 W/m² | - |
| 1788289433 | 30° C | 29% | 1018.1 hPa | 0 mm | - | 832 W/m² | - |
| 1788289131 | 30° C | 30% | 1018.1 hPa | 0 mm | - | 834 W/m² | - |
| 1788288825 | 29.44° C | 32% | 1018.3 hPa | 0 mm | - | 831 W/m² | - |
| 1788288520 | 29.44° C | 31% | 1018.2 hPa | 0 mm | - | 831 W/m² | - |
| 1788288216 | 28.89° C | 34% | 1018.3 hPa | 0 mm | - | 825 W/m² | - |
| 1788287911 | 28.89° C | 33% | 1018.3 hPa | 0 mm | - | 819 W/m² | - |
| 1788287610 | 29.44° C | 32% | 1018.4 hPa | 0 mm | - | 813 W/m² | - |
* Rain latest hour (hover to see other rain measurements)
** Current wind speed in m/s (hover to see current wind gust speed)